VLG1516 LFMN-LEBL
Flight info
| Callsign | VLG1516 |
|---|---|
| Flight time | 0h 52m |
| Altitude | 30000 |
| Route | EPOLO DCT SOFFY/N0454F290 DCT NILDU DCT BISBA |
| Aircraft | A319/M-SDE3FGHIRWY/LB1 |
Departure
| Time | 2026-05-06 15:16 |
|---|---|
| Airport | Nice-Côte d'Azur Airport (LFMN) |
Arrival
| Time | 2026-05-06 16:08 |
|---|---|
| Airport | Josep Tarradellas Barcelona-El Prat Airport (LEBL) |
| Time | Latitude | Longitude | Altitude | Speed | Heading |
|---|---|---|---|---|---|
| 2026-05-06 14:52 | 43.65918 | 7.20683 | 21 ft | 0 kts | 340° |
| 2026-05-06 15:03 | 43.65903 | 7.20690 | 25 ft | 2 kts | 342° |
| 2026-05-06 15:04 | 43.65890 | 7.20696 | 22 ft | 2 kts | 344° |
| 2026-05-06 15:04 | 43.65873 | 7.20702 | 22 ft | 2 kts | 347° |
| 2026-05-06 15:04 | 43.65857 | 7.20706 | 22 ft | 2 kts | 352° |
| 2026-05-06 15:04 | 43.65841 | 7.20708 | 21 ft | 2 kts | 358° |
| 2026-05-06 15:05 | 43.65824 | 7.20707 | 21 ft | 2 kts | 11° |
| 2026-05-06 15:05 | 43.65809 | 7.20699 | 22 ft | 2 kts | 32° |
| 2026-05-06 15:05 | 43.65797 | 7.20686 | 23 ft | 1 kts | 50° |
| 2026-05-06 15:05 | 43.65800 | 7.20690 | 24 ft | 0 kts | 49° |
| 2026-05-06 15:08 | 43.65807 | 7.20701 | 23 ft | 5 kts | 47° |
| 2026-05-06 15:08 | 43.65867 | 7.20780 | 21 ft | 20 kts | 42° |
| 2026-05-06 15:09 | 43.65977 | 7.20920 | 21 ft | 23 kts | 44° |
| 2026-05-06 15:09 | 43.66080 | 7.21063 | 21 ft | 21 kts | 46° |
| 2026-05-06 15:09 | 43.66193 | 7.21219 | 21 ft | 25 kts | 44° |
| 2026-05-06 15:09 | 43.66300 | 7.21367 | 21 ft | 23 kts | 45° |
| 2026-05-06 15:10 | 43.66391 | 7.21505 | 21 ft | 19 kts | 47° |
| 2026-05-06 15:10 | 43.66492 | 7.21646 | 21 ft | 23 kts | 44° |
| 2026-05-06 15:10 | 43.66615 | 7.21813 | 21 ft | 23 kts | 45° |
| 2026-05-06 15:10 | 43.66642 | 7.21888 | 21 ft | 7 kts | 114° |
| 2026-05-06 15:11 | 43.66621 | 7.21931 | 22 ft | 9 kts | 130° |
| 2026-05-06 15:11 | 43.66545 | 7.22032 | 21 ft | 14 kts | 137° |
| 2026-05-06 15:11 | 43.66466 | 7.22140 | 22 ft | 17 kts | 133° |
| 2026-05-06 15:11 | 43.66410 | 7.22222 | 22 ft | 19 kts | 136° |
| 2026-05-06 15:12 | 43.66394 | 7.22388 | 22 ft | 22 kts | 49° |
| 2026-05-06 15:12 | 43.66511 | 7.22556 | 21 ft | 26 kts | 45° |
| 2026-05-06 15:12 | 43.66572 | 7.22637 | 21 ft | 9 kts | 45° |
| 2026-05-06 15:12 | 43.66583 | 7.22678 | 21 ft | 0 kts | 91° |
| 2026-05-06 15:13 | 43.66582 | 7.22699 | 21 ft | 7 kts | 99° |
| 2026-05-06 15:13 | 43.66511 | 7.22758 | 22 ft | 18 kts | 191° |
| 2026-05-06 15:13 | 43.66468 | 7.22717 | 22 ft | 0 kts | 226° |
| 2026-05-06 15:15 | 43.66459 | 7.22704 | 25 ft | 17 kts | 226° |
| 2026-05-06 15:15 | 43.66127 | 7.22249 | 27 ft | 112 kts | 225° |
| 2026-05-06 15:16 | 43.65396 | 7.21222 | 251 ft | 166 kts | 224° |
| 2026-05-06 15:16 | 43.64543 | 7.19983 | 925 ft | 193 kts | 226° |
| 2026-05-06 15:16 | 43.63535 | 7.18529 | 1757 ft | 229 kts | 224° |
| 2026-05-06 15:16 | 43.62201 | 7.17126 | 2631 ft | 248 kts | 208° |
| 2026-05-06 15:17 | 43.60549 | 7.16342 | 3886 ft | 255 kts | 199° |
| 2026-05-06 15:17 | 43.58814 | 7.15733 | 5053 ft | 260 kts | 198° |
| 2026-05-06 15:17 | 43.57050 | 7.15072 | 6209 ft | 265 kts | 200° |
| 2026-05-06 15:17 | 43.55282 | 7.14314 | 7349 ft | 266 kts | 204° |
| 2026-05-06 15:18 | 43.53747 | 7.12980 | 8573 ft | 261 kts | 229° |
| 2026-05-06 15:18 | 43.52842 | 7.10825 | 9703 ft | 264 kts | 250° |
| 2026-05-06 15:18 | 43.52239 | 7.08385 | 10532 ft | 279 kts | 251° |
| 2026-05-06 15:18 | 43.51593 | 7.05749 | 11023 ft | 304 kts | 251° |
| 2026-05-06 15:19 | 43.50883 | 7.02896 | 11669 ft | 319 kts | 251° |
| 2026-05-06 15:19 | 43.50151 | 6.99988 | 12623 ft | 325 kts | 250° |
| 2026-05-06 15:19 | 43.49399 | 6.97031 | 13609 ft | 330 kts | 250° |
| 2026-05-06 15:19 | 43.48635 | 6.94036 | 14515 ft | 333 kts | 250° |
| 2026-05-06 15:20 | 43.47871 | 6.91039 | 15605 ft | 330 kts | 250° |
| 2026-05-06 15:20 | 43.47104 | 6.88044 | 16557 ft | 333 kts | 250° |
| 2026-05-06 15:20 | 43.46332 | 6.85027 | 17553 ft | 334 kts | 250° |
| 2026-05-06 15:20 | 43.45560 | 6.82012 | 18457 ft | 336 kts | 249° |
| 2026-05-06 15:21 | 43.44777 | 6.78959 | 19260 ft | 338 kts | 249° |
| 2026-05-06 15:21 | 43.43994 | 6.75908 | 20076 ft | 340 kts | 249° |
| 2026-05-06 15:21 | 43.43201 | 6.72825 | 20892 ft | 342 kts | 249° |
| 2026-05-06 15:21 | 43.42404 | 6.69729 | 21665 ft | 345 kts | 248° |
| 2026-05-06 15:22 | 43.41601 | 6.66613 | 22497 ft | 346 kts | 248° |
| 2026-05-06 15:22 | 43.40796 | 6.63494 | 23286 ft | 348 kts | 248° |
| 2026-05-06 15:22 | 43.39977 | 6.60328 | 23851 ft | 353 kts | 248° |
| 2026-05-06 15:22 | 43.39153 | 6.57143 | 24491 ft | 356 kts | 248° |
| 2026-05-06 15:23 | 43.38318 | 6.53925 | 25111 ft | 358 kts | 248° |
| 2026-05-06 15:23 | 43.37479 | 6.50693 | 25695 ft | 361 kts | 247° |
| 2026-05-06 15:23 | 43.36639 | 6.47465 | 26230 ft | 365 kts | 248° |
| 2026-05-06 15:23 | 43.35771 | 6.44134 | 26790 ft | 368 kts | 247° |
| 2026-05-06 15:24 | 43.34916 | 6.40854 | 27343 ft | 371 kts | 247° |
| 2026-05-06 15:24 | 43.34044 | 6.37513 | 27859 ft | 374 kts | 247° |
| 2026-05-06 15:24 | 43.33161 | 6.34136 | 28359 ft | 377 kts | 247° |
| 2026-05-06 15:24 | 43.32271 | 6.30741 | 28830 ft | 380 kts | 247° |
| 2026-05-06 15:25 | 43.31370 | 6.27309 | 29295 ft | 383 kts | 247° |
| 2026-05-06 15:25 | 43.30465 | 6.23863 | 29769 ft | 386 kts | 247° |
| 2026-05-06 15:25 | 43.29550 | 6.20385 | 29871 ft | 387 kts | 247° |
| 2026-05-06 15:26 | 43.27720 | 6.13439 | 29873 ft | 386 kts | 247° |
| 2026-05-06 15:26 | 43.25885 | 6.06506 | 29884 ft | 387 kts | 247° |
| 2026-05-06 15:27 | 43.24048 | 5.99584 | 29892 ft | 387 kts | 247° |
| 2026-05-06 15:27 | 43.22204 | 5.92651 | 29906 ft | 387 kts | 247° |
| 2026-05-06 15:28 | 43.20361 | 5.85735 | 29907 ft | 386 kts | 247° |
| 2026-05-06 15:28 | 43.18513 | 5.78825 | 29918 ft | 386 kts | 247° |
| 2026-05-06 15:29 | 43.16659 | 5.71912 | 29915 ft | 387 kts | 247° |
| 2026-05-06 15:29 | 43.14801 | 5.65000 | 29922 ft | 386 kts | 247° |
| 2026-05-06 15:30 | 43.12941 | 5.58104 | 29920 ft | 386 kts | 247° |
| 2026-05-06 15:30 | 43.11080 | 5.51221 | 29919 ft | 386 kts | 247° |
| 2026-05-06 15:31 | 43.09213 | 5.44338 | 29923 ft | 386 kts | 247° |
| 2026-05-06 15:31 | 43.07341 | 5.37453 | 29923 ft | 386 kts | 247° |
| 2026-05-06 15:32 | 43.04515 | 5.27096 | 29924 ft | 386 kts | 247° |
| 2026-05-06 15:32 | 43.02505 | 5.20306 | 29927 ft | 384 kts | 242° |
| 2026-05-06 15:33 | 42.99803 | 5.14035 | 29923 ft | 383 kts | 234° |
| 2026-05-06 15:33 | 42.96595 | 5.08213 | 29928 ft | 383 kts | 233° |
| 2026-05-06 15:34 | 42.93419 | 5.02434 | 29929 ft | 383 kts | 233° |
| 2026-05-06 15:34 | 42.90212 | 4.96622 | 29933 ft | 383 kts | 233° |
| 2026-05-06 15:35 | 42.86994 | 4.90813 | 29932 ft | 384 kts | 233° |
| 2026-05-06 15:35 | 42.83775 | 4.85015 | 29931 ft | 384 kts | 233° |
| 2026-05-06 15:36 | 42.80551 | 4.79221 | 29931 ft | 384 kts | 233° |
| 2026-05-06 15:36 | 42.77318 | 4.73419 | 29925 ft | 384 kts | 233° |
| 2026-05-06 15:37 | 42.74083 | 4.67625 | 29935 ft | 384 kts | 233° |
| 2026-05-06 15:37 | 42.70848 | 4.61843 | 29935 ft | 384 kts | 233° |
| 2026-05-06 15:38 | 42.67607 | 4.56062 | 29929 ft | 385 kts | 233° |
| 2026-05-06 15:38 | 42.64365 | 4.50289 | 29933 ft | 385 kts | 233° |
| 2026-05-06 15:39 | 42.61116 | 4.44515 | 29940 ft | 385 kts | 233° |
| 2026-05-06 15:39 | 42.57863 | 4.38747 | 29936 ft | 385 kts | 233° |
| 2026-05-06 15:40 | 42.54602 | 4.32975 | 29936 ft | 385 kts | 233° |
| 2026-05-06 15:40 | 42.51340 | 4.27212 | 29938 ft | 385 kts | 233° |
| 2026-05-06 15:41 | 42.48076 | 4.21457 | 29943 ft | 385 kts | 233° |
| 2026-05-06 15:41 | 42.44810 | 4.15711 | 29939 ft | 386 kts | 233° |
| 2026-05-06 15:42 | 42.41530 | 4.09949 | 29943 ft | 386 kts | 233° |
| 2026-05-06 15:42 | 42.38253 | 4.04205 | 29936 ft | 386 kts | 233° |
| 2026-05-06 15:43 | 42.34980 | 3.98479 | 29941 ft | 386 kts | 233° |
| 2026-05-06 15:43 | 42.31678 | 3.92713 | 29941 ft | 387 kts | 233° |
| 2026-05-06 15:44 | 42.28371 | 3.86965 | 29850 ft | 387 kts | 232° |
| 2026-05-06 15:44 | 42.26639 | 3.84219 | 29568 ft | 386 kts | 229° |
| 2026-05-06 15:44 | 42.24778 | 3.81593 | 29278 ft | 384 kts | 226° |
| 2026-05-06 15:45 | 42.22822 | 3.79133 | 29004 ft | 384 kts | 224° |
| 2026-05-06 15:45 | 42.20799 | 3.76791 | 28736 ft | 383 kts | 223° |
| 2026-05-06 15:45 | 42.18766 | 3.74414 | 28448 ft | 381 kts | 223° |
| 2026-05-06 15:45 | 42.16794 | 3.72101 | 28176 ft | 380 kts | 223° |
| 2026-05-06 15:46 | 42.14802 | 3.69769 | 27909 ft | 379 kts | 223° |
| 2026-05-06 15:46 | 42.12812 | 3.67446 | 27641 ft | 377 kts | 223° |
| 2026-05-06 15:46 | 42.10842 | 3.65151 | 27376 ft | 376 kts | 223° |
| 2026-05-06 15:46 | 42.08862 | 3.62831 | 27113 ft | 374 kts | 225° |
| 2026-05-06 15:47 | 42.07031 | 3.60355 | 26859 ft | 372 kts | 228° |
| 2026-05-06 15:47 | 42.05245 | 3.57842 | 26596 ft | 371 kts | 228° |
| 2026-05-06 15:47 | 42.03460 | 3.55346 | 26336 ft | 369 kts | 228° |
| 2026-05-06 15:47 | 42.01678 | 3.52857 | 26085 ft | 368 kts | 228° |
| 2026-05-06 15:48 | 41.99912 | 3.50396 | 25842 ft | 367 kts | 228° |
| 2026-05-06 15:48 | 41.98133 | 3.47918 | 25577 ft | 366 kts | 228° |
| 2026-05-06 15:48 | 41.96374 | 3.45469 | 25165 ft | 362 kts | 228° |
| 2026-05-06 15:48 | 41.95195 | 3.43830 | 24777 ft | 361 kts | 228° |
| 2026-05-06 15:49 | 41.93455 | 3.41410 | 24163 ft | 358 kts | 228° |
| 2026-05-06 15:49 | 41.91730 | 3.39014 | 23543 ft | 356 kts | 228° |
| 2026-05-06 15:49 | 41.90014 | 3.36632 | 22800 ft | 354 kts | 228° |
| 2026-05-06 15:49 | 41.88304 | 3.34260 | 22041 ft | 353 kts | 228° |
| 2026-05-06 15:50 | 41.86597 | 3.31894 | 21319 ft | 352 kts | 228° |
| 2026-05-06 15:50 | 41.84903 | 3.29548 | 20610 ft | 350 kts | 228° |
| 2026-05-06 15:50 | 41.83211 | 3.27207 | 19930 ft | 349 kts | 228° |
| 2026-05-06 15:50 | 41.81522 | 3.24872 | 19266 ft | 348 kts | 228° |
| 2026-05-06 15:51 | 41.79835 | 3.22542 | 18581 ft | 348 kts | 228° |
| 2026-05-06 15:51 | 41.78175 | 3.20250 | 17921 ft | 347 kts | 228° |
| 2026-05-06 15:51 | 41.76471 | 3.17899 | 17218 ft | 345 kts | 228° |
| 2026-05-06 15:51 | 41.74804 | 3.15600 | 16549 ft | 344 kts | 228° |
| 2026-05-06 15:52 | 41.73141 | 3.13307 | 15883 ft | 343 kts | 227° |
| 2026-05-06 15:52 | 41.71478 | 3.11018 | 15243 ft | 342 kts | 227° |
| 2026-05-06 15:52 | 41.69826 | 3.08743 | 14619 ft | 341 kts | 227° |
| 2026-05-06 15:52 | 41.68154 | 3.06445 | 13994 ft | 340 kts | 227° |
| 2026-05-06 15:53 | 41.66487 | 3.04261 | 13388 ft | 339 kts | 222° |
| 2026-05-06 15:53 | 41.64569 | 3.02360 | 12785 ft | 338 kts | 214° |
| 2026-05-06 15:53 | 41.62503 | 3.00883 | 12188 ft | 337 kts | 206° |
| 2026-05-06 15:53 | 41.60370 | 2.99588 | 11593 ft | 336 kts | 207° |
| 2026-05-06 15:54 | 41.58252 | 2.98281 | 11000 ft | 334 kts | 207° |
| 2026-05-06 15:54 | 41.56148 | 2.96976 | 10431 ft | 333 kts | 207° |
| 2026-05-06 15:54 | 41.54063 | 2.95683 | 10042 ft | 326 kts | 207° |
| 2026-05-06 15:54 | 41.52053 | 2.94440 | 9932 ft | 311 kts | 207° |
| 2026-05-06 15:55 | 41.50146 | 2.93264 | 9919 ft | 293 kts | 207° |
| 2026-05-06 15:55 | 41.48302 | 2.92124 | 9829 ft | 304 kts | 207° |
| 2026-05-06 15:55 | 41.46330 | 2.90898 | 9792 ft | 317 kts | 207° |
| 2026-05-06 15:55 | 41.44331 | 2.89663 | 9751 ft | 314 kts | 207° |
| 2026-05-06 15:56 | 41.42370 | 2.88457 | 9669 ft | 304 kts | 207° |
| 2026-05-06 15:56 | 41.40568 | 2.87125 | 9556 ft | 290 kts | 217° |
| 2026-05-06 15:56 | 41.39063 | 2.85445 | 9408 ft | 277 kts | 227° |
| 2026-05-06 15:56 | 41.37753 | 2.83559 | 9247 ft | 279 kts | 229° |
| 2026-05-06 15:57 | 41.36428 | 2.81670 | 8983 ft | 278 kts | 229° |
| 2026-05-06 15:57 | 41.35112 | 2.79812 | 8679 ft | 275 kts | 229° |
| 2026-05-06 15:57 | 41.33794 | 2.77956 | 8367 ft | 275 kts | 229° |
| 2026-05-06 15:57 | 41.32485 | 2.76113 | 8072 ft | 273 kts | 229° |
| 2026-05-06 15:58 | 41.31179 | 2.74274 | 7936 ft | 273 kts | 229° |
| 2026-05-06 15:58 | 41.29893 | 2.72462 | 7923 ft | 273 kts | 229° |
| 2026-05-06 15:58 | 41.28585 | 2.70619 | 7910 ft | 274 kts | 229° |
| 2026-05-06 15:58 | 41.27273 | 2.68752 | 7631 ft | 274 kts | 232° |
| 2026-05-06 15:59 | 41.26424 | 2.66547 | 7187 ft | 272 kts | 258° |
| 2026-05-06 15:59 | 41.26425 | 2.64072 | 6768 ft | 270 kts | 285° |
| 2026-05-06 15:59 | 41.27175 | 2.61765 | 6353 ft | 269 kts | 297° |
| 2026-05-06 15:59 | 41.28013 | 2.59564 | 5953 ft | 267 kts | 296° |
| 2026-05-06 16:00 | 41.28851 | 2.57352 | 5552 ft | 265 kts | 296° |
| 2026-05-06 16:00 | 41.29673 | 2.55165 | 5164 ft | 264 kts | 296° |
| 2026-05-06 16:00 | 41.30487 | 2.52992 | 4798 ft | 261 kts | 296° |
| 2026-05-06 16:00 | 41.31287 | 2.50853 | 4540 ft | 255 kts | 296° |
| 2026-05-06 16:01 | 41.32076 | 2.48741 | 4258 ft | 256 kts | 296° |
| 2026-05-06 16:01 | 41.32863 | 2.46632 | 4122 ft | 251 kts | 296° |
| 2026-05-06 16:01 | 41.33621 | 2.44603 | 4033 ft | 240 kts | 296° |
| 2026-05-06 16:01 | 41.34347 | 2.42664 | 3932 ft | 229 kts | 296° |
| 2026-05-06 16:02 | 41.35062 | 2.40744 | 3473 ft | 235 kts | 295° |
| 2026-05-06 16:02 | 41.35808 | 2.38745 | 3079 ft | 243 kts | 295° |
| 2026-05-06 16:02 | 41.36549 | 2.36758 | 2981 ft | 234 kts | 294° |
| 2026-05-06 16:02 | 41.37082 | 2.35334 | 2974 ft | 221 kts | 294° |
| 2026-05-06 16:03 | 41.37606 | 2.33491 | 2984 ft | 205 kts | 277° |
| 2026-05-06 16:03 | 41.37589 | 2.31680 | 2986 ft | 190 kts | 258° |
| 2026-05-06 16:03 | 41.37238 | 2.30036 | 2976 ft | 178 kts | 249° |
| 2026-05-06 16:03 | 41.36786 | 2.28564 | 2958 ft | 164 kts | 245° |
| 2026-05-06 16:04 | 41.36316 | 2.27171 | 2747 ft | 165 kts | 244° |
| 2026-05-06 16:04 | 41.35851 | 2.25805 | 2535 ft | 163 kts | 244° |
| 2026-05-06 16:04 | 41.35385 | 2.24436 | 2322 ft | 161 kts | 243° |
| 2026-05-06 16:04 | 41.34936 | 2.23125 | 2123 ft | 153 kts | 243° |
| 2026-05-06 16:05 | 41.34513 | 2.21883 | 1921 ft | 139 kts | 242° |
| 2026-05-06 16:05 | 41.34136 | 2.20781 | 1740 ft | 120 kts | 242° |
| 2026-05-06 16:05 | 41.33808 | 2.19823 | 1571 ft | 116 kts | 241° |
| 2026-05-06 16:05 | 41.33456 | 2.18803 | 1419 ft | 120 kts | 242° |
| 2026-05-06 16:06 | 41.33121 | 2.17817 | 1261 ft | 120 kts | 241° |
| 2026-05-06 16:06 | 41.32769 | 2.16794 | 1091 ft | 118 kts | 242° |
| 2026-05-06 16:06 | 41.32431 | 2.15805 | 941 ft | 123 kts | 241° |
| 2026-05-06 16:06 | 41.32080 | 2.14782 | 769 ft | 119 kts | 242° |
| 2026-05-06 16:07 | 41.31839 | 2.14077 | 655 ft | 114 kts | 242° |
| 2026-05-06 16:07 | 41.31505 | 2.13100 | 485 ft | 122 kts | 241° |
| 2026-05-06 16:07 | 41.31163 | 2.12095 | 315 ft | 115 kts | 242° |
| 2026-05-06 16:07 | 41.30845 | 2.11159 | 178 ft | 116 kts | 241° |
| 2026-05-06 16:08 | 41.30499 | 2.10157 | 41 ft | 118 kts | 241° |
| 2026-05-06 16:08 | 41.30195 | 2.09298 | 5 ft | 66 kts | 245° |
| 2026-05-06 16:08 | 41.30078 | 2.08936 | 5 ft | 40 kts | 245° |
| 2026-05-06 16:08 | 41.29934 | 2.08634 | 6 ft | 37 kts | 225° |
| 2026-05-06 16:09 | 41.29766 | 2.08474 | 3 ft | 28 kts | 214° |
| 2026-05-06 16:09 | 41.29708 | 2.08403 | 3 ft | 4 kts | 243° |
| 2026-05-06 16:09 | 41.29680 | 2.08336 | 3 ft | 12 kts | 240° |
| 2026-05-06 16:09 | 41.29613 | 2.08234 | 3 ft | 17 kts | 172° |
| 2026-05-06 16:10 | 41.29484 | 2.08304 | 4 ft | 23 kts | 152° |
| 2026-05-06 16:10 | 41.29360 | 2.08294 | 5 ft | 20 kts | 246° |
| 2026-05-06 16:10 | 41.29294 | 2.08110 | 3 ft | 16 kts | 244° |
| 2026-05-06 16:10 | 41.29233 | 2.08103 | 5 ft | 10 kts | 153° |
| 2026-05-06 16:11 | 41.29210 | 2.08118 | 3 ft | 0 kts | 156° |